Time;durP1;ratioP1;P1;durP2;ratioP2;P2;SDS_P1;SDS_P2;PMS_P1;PMS_P2;Temp;Humidity;BMP_temperature;BMP_pressure;BME280_temperature;BME280_humidity;BME280_pressure;Samples;Min_cycle;Max_cycle;Signal;HPM_P1;HPM_P2
2021/04/01 00:00:38;;;;;;;22.63;11.97;;;16.10;90.00;;;;;;5055030;28;20217;-82
2021/04/01 00:03:05;;;;;;;21.03;11.77;;;16.10;93.00;;;;;;5054325;28;20248;-82
2021/04/01 00:05:31;;;;;;;22.93;11.27;;;16.10;88.80;;;;;;5055682;28;20200;-81
2021/04/01 00:07:58;;;;;;;22.17;11.47;;;16.20;86.60;;;;;;5020788;28;20207;-81
2021/04/01 00:10:28;;;;;;;21.17;11.87;;;16.00;86.70;;;;;;5036656;28;20206;-81
2021/04/01 00:12:55;;;;;;;20.77;12.43;;;16.10;89.50;;;;;;5035201;28;20196;-83
2021/04/01 00:15:22;;;;;;;22.50;12.33;;;15.90;90.80;;;;;;5019348;28;20208;-82
2021/04/01 00:17:49;;;;;;;19.70;11.20;;;15.80;93.40;;;;;;5036957;28;20216;-82
2021/04/01 00:20:17;;;;;;;22.03;11.57;;;15.80;93.30;;;;;;5035099;28;20653;-82
2021/04/01 00:22:45;;;;;;;22.10;11.20;;;15.90;92.60;;;;;;5036333;28;20621;-82
2021/04/01 00:25:15;;;;;;;18.53;11.37;;;15.80;91.70;;;;;;5052987;28;20583;-82
2021/04/01 00:27:41;;;;;;;18.73;11.73;;;15.80;93.80;;;;;;5035155;28;20673;-82
2021/04/01 00:30:12;;;;;;;20.67;11.07;;;15.80;93.60;;;;;;5053376;28;20195;-81
2021/04/01 00:32:38;;;;;;;19.97;11.33;;;15.80;93.80;;;;;;5019043;28;20204;-81
2021/04/01 00:35:06;;;;;;;22.30;11.13;;;15.90;91.00;;;;;;5017693;28;20206;-81
2021/04/01 00:37:33;;;;;;;18.03;11.60;;;15.90;91.70;;;;;;5037551;28;20512;-81
2021/04/01 00:39:59;;;;;;;21.20;11.10;;;16.00;91.10;;;;;;5034280;28;20264;-81
2021/04/01 00:42:26;;;;;;;20.97;11.07;;;16.10;91.00;;;;;;5036716;28;20221;-81
2021/04/01 00:44:57;;;;;;;19.57;11.03;;;16.10;91.90;;;;;;5053653;28;20727;-81
2021/04/01 00:47:24;;;;;;;17.37;10.67;;;16.10;93.30;;;;;;5041147;28;20206;-83
2021/04/01 00:49:50;;;;;;;22.40;11.10;;;16.00;97.10;;;;;;5023797;28;20539;-81
2021/04/01 00:52:24;;;;;;;20.00;11.33;;;16.10;98.00;;;;;;5023101;28;20211;-81
2021/04/01 00:54:50;;;;;;;20.80;11.93;;;16.10;95.70;;;;;;5054179;28;20210;-81
2021/04/01 00:57:17;;;;;;;22.53;11.53;;;16.10;95.20;;;;;;5038984;28;20211;-81
2021/04/01 00:59:43;;;;;;;20.50;11.40;;;16.10;99.90;;;;;;5019648;28;20217;-81
2021/04/01 01:02:10;;;;;;;25.47;11.80;;;16.10;98.50;;;;;;5037990;28;20227;-83
2021/04/01 01:04:37;;;;;;;20.80;12.30;;;16.20;95.30;;;;;;5034503;28;20664;-82
2021/04/01 01:07:04;;;;;;;21.00;11.67;;;16.10;92.20;;;;;;5016806;28;20196;-82
2021/04/01 01:09:31;;;;;;;23.57;11.40;;;16.10;94.60;;;;;;5038103;28;20226;-83
2021/04/01 01:11:57;;;;;;;19.50;12.00;;;15.80;99.90;;;;;;5030848;28;20289;-82
2021/04/01 01:14:23;;;;;;;16.40;10.83;;;15.10;99.90;;;;;;5020449;28;21303;-83
2021/04/01 01:16:50;;;;;;;19.07;12.03;;;15.00;99.90;;;;;;5036681;28;20208;-82
2021/04/01 01:19:17;;;;;;;18.33;11.30;;;15.00;99.90;;;;;;5019877;28;20204;-82
2021/04/01 01:21:45;;;;;;;15.43;10.00;;;15.10;99.90;;;;;;5038337;28;20217;-82
2021/04/01 01:24:16;;;;;;;20.23;11.50;;;15.20;99.90;;;;;;5037915;28;20281;-82
2021/04/01 01:26:46;;;;;;;19.00;10.93;;;15.40;99.90;;;;;;5037679;28;20229;-82
2021/04/01 01:29:13;;;;;;;21.00;12.37;;;15.50;99.90;;;;;;5051385;28;20254;-82
2021/04/01 01:31:48;;;;;;;19.67;11.87;;;15.50;99.70;;;;;;5035292;28;20267;-82
2021/04/01 01:34:14;;;;;;;18.10;11.37;;;15.50;99.10;;;;;;5034580;28;20260;-82
2021/04/01 01:36:41;;;;;;;20.70;11.97;;;15.40;99.90;;;;;;5032974;28;20205;-83
2021/04/01 01:39:07;;;;;;;17.90;11.70;;;15.60;99.90;;;;;;5034958;28;20261;-82
2021/04/01 01:41:34;;;;;;;20.67;11.77;;;15.60;99.90;;;;;;5016567;28;20253;-82
2021/04/01 01:44:01;;;;;;;19.13;12.87;;;15.40;99.90;;;;;;5038061;28;20232;-82
2021/04/01 01:46:28;;;;;;;23.17;12.83;;;15.60;99.90;;;;;;5034599;28;20196;-82
2021/04/01 01:48:59;;;;;;;25.80;14.00;;;15.70;97.30;;;;;;5036656;28;20199;-82
2021/04/01 01:51:27;;;;;;;23.57;13.10;;;15.60;97.80;;;;;;5036296;28;20204;-82
2021/04/01 01:53:54;;;;;;;25.57;13.00;;;15.50;99.90;;;;;;5024008;28;20240;-82
2021/04/01 01:56:25;;;;;;;24.97;13.30;;;15.70;99.90;;;;;;5038138;28;20212;-82
2021/04/01 01:58:57;;;;;;;24.90;13.10;;;15.70;97.40;;;;;;5052174;28;20204;-82
2021/04/01 02:01:25;;;;;;;24.73;13.70;;;15.70;96.90;;;;;;5019893;28;20227;-82
2021/04/01 02:03:53;;;;;;;22.57;13.30;;;15.70;99.90;;;;;;5031853;28;20258;-82
2021/04/01 02:06:21;;;;;;;22.17;13.27;;;15.70;99.90;;;;;;5053434;28;20238;-82
2021/04/01 02:08:50;;;;;;;24.57;13.73;;;15.70;99.90;;;;;;5037207;28;20245;-82
2021/04/01 02:11:18;;;;;;;25.60;15.40;;;15.80;99.90;;;;;;5033151;28;20208;-82
2021/04/01 02:13:44;;;;;;;26.93;13.73;;;15.70;99.60;;;;;;5035841;28;20199;-82
2021/04/01 02:16:13;;;;;;;24.40;14.57;;;15.70;97.50;;;;;;5034595;28;20218;-82
2021/04/01 02:18:40;;;;;;;23.63;13.73;;;15.90;98.30;;;;;;5050638;28;20728;-82
2021/04/01 02:21:09;;;;;;;30.13;15.90;;;15.80;98.10;;;;;;5034587;28;20204;-82
2021/04/01 02:23:37;;;;;;;28.47;14.90;;;15.80;93.00;;;;;;5020786;28;20235;-82
2021/04/01 02:26:04;;;;;;;24.53;14.70;;;15.80;95.10;;;;;;5036479;28;20199;-82
2021/04/01 02:28:33;;;;;;;30.43;16.30;;;15.70;99.80;;;;;;5055544;28;20654;-82
2021/04/01 02:31:02;;;;;;;26.83;15.37;;;15.70;99.90;;;;;;5052476;28;20628;-82
2021/04/01 02:33:30;;;;;;;28.93;16.43;;;15.70;99.90;;;;;;5055097;28;20227;-82
2021/04/01 02:35:57;;;;;;;29.60;16.97;;;15.60;98.70;;;;;;5033561;28;20261;-82
2021/04/01 02:38:25;;;;;;;33.97;17.83;;;15.50;92.10;;;;;;5050925;28;20211;-82
2021/04/01 02:40:53;;;;;;;32.57;16.73;;;15.30;91.50;;;;;;5042947;28;20206;-81
2021/04/01 02:43:35;;;;;;;29.87;16.97;;;15.40;93.60;;;;;;5020432;28;20229;-81
2021/04/01 02:46:04;;;;;;;35.33;16.90;;;15.50;92.70;;;;;;5026833;28;20646;-81
2021/04/01 02:48:30;;;;;;;30.47;17.93;;;15.50;91.70;;;;;;5057175;28;20265;-81
2021/04/01 02:50:57;;;;;;;27.57;16.03;;;15.60;91.30;;;;;;5047052;28;20230;-81
2021/04/01 02:53:24;;;;;;;30.47;16.83;;;15.50;92.50;;;;;;5041171;28;20188;-81
2021/04/01 02:55:54;;;;;;;33.30;16.43;;;15.50;93.60;;;;;;5054725;28;20250;-82
2021/04/01 02:58:21;;;;;;;24.13;14.77;;;15.50;96.30;;;;;;5059766;28;20233;-82
2021/04/01 03:00:48;;;;;;;25.57;14.70;;;15.50;99.10;;;;;;5057665;28;20206;-81
2021/04/01 03:03:19;;;;;;;24.57;13.63;;;15.30;99.90;;;;;;5050261;28;20240;-81
2021/04/01 03:05:45;;;;;;;23.03;13.63;;;15.20;99.90;;;;;;5027232;28;20212;-82
2021/04/01 03:08:12;;;;;;;24.27;14.47;;;15.20;99.90;;;;;;5042129;28;20206;-81
2021/04/01 03:10:38;;;;;;;31.07;15.93;;;15.20;99.90;;;;;;5037978;28;20265;-81
2021/04/01 03:13:05;;;;;;;30.83;16.00;;;15.20;99.30;;;;;;5040089;28;20215;-82
2021/04/01 03:15:32;;;;;;;29.00;16.40;;;15.20;99.90;;;;;;5011617;28;20283;-82
2021/04/01 03:17:58;;;;;;;28.27;15.67;;;15.20;99.90;;;;;;5042016;28;20226;-81
2021/04/01 03:20:24;;;;;;;27.63;15.53;;;15.20;98.90;;;;;;5039652;28;20198;-82
2021/04/01 03:22:51;;;;;;;29.73;15.87;;;15.10;99.90;;;;;;5040701;28;20221;-82
2021/04/01 03:25:17;;;;;;;28.33;16.53;;;15.10;99.90;;;;;;5023896;28;20276;-81
2021/04/01 03:27:44;;;;;;;32.60;17.00;;;15.10;99.90;;;;;;5012026;28;20737;-81
2021/04/01 03:30:15;;;;;;;31.43;17.80;;;15.00;99.90;;;;;;4998735;28;20216;-82
2021/04/01 03:32:48;;;;;;;33.77;17.37;;;15.20;92.10;;;;;;5024890;28;20201;-82
2021/04/01 03:35:22;;;;;;;37.33;18.37;;;15.00;92.60;;;;;;4999337;28;20208;-82
2021/04/01 03:37:52;;;;;;;28.73;16.47;;;14.90;91.70;;;;;;5015815;28;20256;-82
2021/04/01 03:40:18;;;;;;;31.30;16.70;;;14.90;91.60;;;;;;5017347;28;20248;-82
2021/04/01 03:42:45;;;;;;;33.87;16.63;;;14.80;92.50;;;;;;4999346;28;20599;-82
2021/04/01 03:45:13;;;;;;;31.97;17.47;;;14.80;92.00;;;;;;5000406;28;20203;-82
2021/04/01 03:47:40;;;;;;;33.13;17.00;;;14.70;93.10;;;;;;5017355;28;20238;-82
2021/04/01 03:50:08;;;;;;;36.03;17.83;;;14.90;92.10;;;;;;5029541;28;20204;-82
2021/04/01 03:52:35;;;;;;;36.23;18.03;;;14.80;92.10;;;;;;4982398;28;20212;-82
2021/04/01 03:57:41;;;;;;;31.03;16.67;;;15.00;92.60;;;;;;5014310;28;20285;-80
2021/04/01 04:00:13;;;;;;;33.50;16.80;;;15.10;91.00;;;;;;5017672;28;20202;-81
2021/04/01 04:10:27;;;;;;;32.90;16.40;;;15.10;91.30;;;;;;5025108;28;20208;-81
2021/04/01 04:15:22;;;;;;;28.37;15.27;;;15.10;91.30;;;;;;5019088;28;20197;-81
2021/04/01 04:17:49;;;;;;;32.43;17.47;;;15.00;1.00;;;;;;5018953;28;20219;-81
2021/04/01 04:20:17;;;;;;;28.03;16.53;;;14.90;99.90;;;;;;5022603;28;20656;-81
2021/04/01 04:22:44;;;;;;;30.70;16.67;;;14.80;1.00;;;;;;5030741;28;20209;-81
2021/04/01 04:25:13;;;;;;;29.70;17.23;;;14.70;1.00;;;;;;5017831;28;20267;-81
2021/04/01 04:30:15;;;;;;;27.73;14.63;;;14.10;1.00;;;;;;5015844;28;20192;-81
2021/04/01 04:32:42;;;;;;;27.87;16.93;;;14.30;1.00;;;;;;5025687;28;20190;-81
2021/04/01 04:35:09;;;;;;;31.07;16.67;;;13.90;1.00;;;;;;5015119;28;20985;-81
2021/04/01 04:37:36;;;;;;;29.93;16.50;;;13.60;1.00;;;;;;5012878;28;20211;-81
2021/04/01 04:40:07;;;;;;;27.73;17.00;;;13.60;1.00;;;;;;5017077;28;20263;-81
2021/04/01 04:42:35;;;;;;;31.53;17.63;;;13.50;6.10;;;;;;4980354;28;20237;-83
2021/04/01 04:45:02;;;;;;;27.63;15.87;;;13.60;99.90;;;;;;5026290;28;20203;-83
2021/04/01 04:47:28;;;;;;;30.70;16.53;;;13.30;99.90;;;;;;4996438;28;20654;-83
2021/04/01 04:49:54;;;;;;;28.73;15.27;;;12.80;1.00;;;;;;5029507;28;20230;-83
2021/04/01 04:52:21;;;;;;;26.80;15.37;;;13.10;1.00;;;;;;4995851;28;20265;-83
2021/04/01 04:54:48;;;;;;;27.37;15.93;;;13.40;99.90;;;;;;5012418;28;20207;-82
2021/04/01 04:59:59;;;;;;;31.47;16.37;;;13.60;99.90;;;;;;5029084;28;20203;-82
2021/04/01 05:05:11;;;;;;;29.30;16.47;;;13.50;99.90;;;;;;5013034;28;20205;-83
2021/04/01 05:07:37;;;;;;;27.50;16.50;;;13.50;99.90;;;;;;4993456;28;20206;-83
2021/04/01 05:10:04;;;;;;;28.27;16.83;;;13.50;99.90;;;;;;4980035;28;20201;-84
2021/04/01 05:12:30;;;;;;;30.10;16.73;;;13.50;99.90;;;;;;5014770;28;20291;-84
2021/04/01 05:14:56;;;;;;;26.43;15.30;;;13.40;1.00;;;;;;4978929;28;20233;-83
2021/04/01 05:17:24;;;;;;;31.13;15.43;;;13.40;1.00;;;;;;5010952;28;20212;-83
2021/04/01 05:19:56;;;;;;;26.93;16.27;;;13.50;99.90;;;;;;4988887;28;20264;-83
2021/04/01 05:22:33;;;;;;;27.03;15.13;;;13.50;99.90;;;;;;5010524;28;20275;-83
2021/04/01 05:25:01;;;;;;;31.03;16.23;;;13.50;99.90;;;;;;5014109;28;20248;-83
2021/04/01 05:30:23;;;;;;;27.23;15.53;;;13.60;99.90;;;;;;4987695;28;20201;-83
2021/04/01 05:32:49;;;;;;;32.80;16.17;;;13.70;1.00;;;;;;5014155;28;20269;-82
2021/04/01 05:35:16;;;;;;;30.27;15.60;;;13.70;1.00;;;;;;5007942;28;20230;-83
2021/04/01 05:37:43;;;;;;;27.17;16.33;;;13.40;1.00;;;;;;4995000;28;20210;-82
2021/04/01 05:40:12;;;;;;;29.27;16.13;;;12.70;1.00;;;;;;5014418;28;20209;-83
2021/04/01 05:42:44;;;;;;;30.27;16.03;;;12.50;1.00;;;;;;5014676;28;20227;-81
2021/04/01 06:06:27;;;;;;;33.87;15.47;;;13.00;1.00;;;;;;5016574;28;20208;-84
2021/04/01 06:09:00;;;;;;;24.03;15.43;;;12.90;1.00;;;;;;5013526;28;20200;-84
2021/04/01 06:11:26;;;;;;;29.80;15.80;;;13.00;1.00;;;;;;5016596;28;20232;-84
2021/04/01 06:14:14;;;;;;;33.13;17.10;;;13.10;1.00;;;;;;5014936;28;20198;-84
2021/04/01 06:16:45;;;;;;;30.73;16.10;;;13.30;1.00;;;;;;5028728;28;20223;-85
2021/04/01 06:19:17;;;;;;;32.13;15.77;;;13.50;1.00;;;;;;5011514;28;20276;-82
2021/04/01 06:21:48;;;;;;;36.67;18.07;;;13.60;1.00;;;;;;5024729;28;20263;-83
2021/04/01 06:24:26;;;;;;;32.60;16.10;;;13.80;99.90;;;;;;5011151;28;20217;-84
2021/04/01 06:27:01;;;;;;;31.67;17.23;;;14.00;99.90;;;;;;5017718;28;20242;-85
2021/04/01 06:29:30;;;;;;;31.67;15.20;;;14.20;99.90;;;;;;5048058;28;20203;-85
2021/04/01 06:31:59;;;;;;;39.83;17.37;;;14.30;84.20;;;;;;5036401;28;20202;-82
2021/04/01 06:34:35;;;;;;;36.83;17.47;;;14.50;1.00;;;;;;5034498;28;20617;-83
2021/04/01 06:37:03;;;;;;;35.40;16.57;;;14.50;1.00;;;;;;5036638;28;20228;-84
2021/04/01 06:39:30;;;;;;;32.63;16.03;;;14.70;1.00;;;;;;5016691;28;20258;-83
2021/04/01 06:42:05;;;;;;;33.97;16.60;;;14.50;1.00;;;;;;5030161;28;20647;-83
2021/04/01 06:44:59;;;;;;;35.03;16.50;;;14.30;1.00;;;;;;5030879;28;20645;-83
2021/04/01 06:47:28;;;;;;;38.47;18.23;;;14.60;1.00;;;;;;5025909;28;20206;-82
2021/04/01 06:50:03;;;;;;;38.13;17.23;;;14.70;1.00;;;;;;5032143;28;20303;-82
2021/04/01 06:52:35;;;;;;;32.57;16.97;;;14.80;1.00;;;;;;5030550;28;20209;-83
2021/04/01 06:55:17;;;;;;;38.73;17.60;;;14.80;99.90;;;;;;5012970;28;20200;-83
2021/04/01 06:58:07;;;;;;;39.00;18.43;;;14.90;1.00;;;;;;5049650;28;20203;-82
2021/04/01 07:01:22;;;;;;;41.50;18.27;;;15.00;99.90;;;;;;5048119;28;20209;-82
2021/04/01 07:03:56;;;;;;;38.23;18.57;;;15.20;99.90;;;;;;5032275;28;20228;-82
2021/04/01 07:06:34;;;;;;;43.13;20.33;;;15.20;99.90;;;;;;5042981;28;20194;-82
2021/04/01 07:11:33;;;;;;;44.30;19.27;;;15.30;99.90;;;;;;5047694;28;20273;-82
2021/04/01 07:14:21;;;;;;;42.13;20.87;;;15.20;99.90;;;;;;5050289;28;20195;-83
2021/04/01 07:17:01;;;;;;;43.70;20.83;;;15.40;99.90;;;;;;5050433;28;20190;-83
2021/04/01 07:47:16;;;;;;;52.10;23.93;;;16.20;1.00;;;;;;5058381;28;20203;-82
2021/04/01 07:49:47;;;;;;;46.53;22.97;;;16.10;1.00;;;;;;5025129;28;20294;-81
2021/04/01 07:52:21;;;;;;;53.40;23.80;;;16.00;82.20;;;;;;5055485;28;21080;-81
2021/04/01 08:05:32;;;;;;;48.57;26.57;;;16.20;1.00;;;;;;5059619;28;20225;-81
2021/04/01 08:08:06;;;;;;;58.33;26.73;;;16.50;1.00;;;;;;5040900;28;20198;-81
2021/04/01 08:10:41;;;;;;;59.50;27.83;;;16.60;94.80;;;;;;5040214;28;20675;-81
2021/04/01 08:13:14;;;;;;;53.70;25.77;;;16.60;95.70;;;;;;5045411;28;20267;-80
2021/04/01 08:15:54;;;;;;;50.17;27.13;;;16.60;94.10;;;;;;5058346;28;20193;-81
2021/04/01 08:18:28;;;;;;;52.17;27.63;;;16.40;1.00;;;;;;5040226;28;20258;-80
2021/04/01 08:21:00;;;;;;;53.10;28.00;;;16.60;95.20;;;;;;5037961;28;20196;-82
2021/04/01 08:23:59;;;;;;;58.20;28.80;;;16.80;95.30;;;;;;5035300;28;20254;-82
2021/04/01 08:27:57;;;;;;;54.77;28.20;;;17.00;94.00;;;;;;5051236;28;20541;-80
2021/04/01 08:33:59;;;;;;;55.77;30.30;;;16.90;93.80;;;;;;5042691;28;20203;-81
2021/04/01 08:36:25;;;;;;;62.53;31.03;;;16.70;99.90;;;;;;5050595;28;20261;-81
2021/04/01 08:39:14;;;;;;;65.50;29.30;;;16.50;1.00;;;;;;5038179;28;20289;-81
2021/04/01 08:42:06;;;;;;;70.47;31.17;;;16.60;1.00;;;;;;5037014;28;20296;-81
2021/04/01 08:45:30;;;;;;;62.80;30.70;;;16.60;99.90;;;;;;5040757;28;20204;-79
2021/04/01 08:48:25;;;;;;;62.30;30.47;;;16.70;1.00;;;;;;5033595;28;20215;-80
2021/04/01 08:51:15;;;;;;;59.77;32.57;;;17.00;94.40;;;;;;5059566;28;20662;-81
2021/04/01 08:53:50;;;;;;;64.30;32.73;;;16.80;1.00;;;;;;5059638;28;20200;-82
2021/04/01 08:56:24;;;;;;;70.43;34.93;;;17.20;93.90;;;;;;5044533;28;20203;-82
2021/04/01 08:59:25;;;;;;;64.10;34.67;;;16.90;1.00;;;;;;5059488;28;20203;-82
2021/04/01 09:01:55;;;;;;;70.20;34.80;;;17.30;1.00;;;;;;5039186;28;20203;-81
2021/04/01 09:04:29;;;;;;;66.40;35.07;;;17.40;93.50;;;;;;5040545;28;20250;-81
2021/04/01 09:07:13;;;;;;;71.53;36.50;;;17.40;92.80;;;;;;5036538;28;20235;-81
2021/04/01 09:09:41;;;;;;;71.53;35.77;;;17.50;99.90;;;;;;5041394;28;20636;-81
2021/04/01 09:12:32;;;;;;;70.83;35.17;;;17.80;93.10;;;;;;5052814;28;20220;-81
2021/04/01 09:15:05;;;;;;;69.87;38.27;;;17.80;91.10;;;;;;5023938;28;20254;-81
2021/04/01 09:17:34;;;;;;;69.03;36.60;;;17.90;92.10;;;;;;5051020;28;20199;-81
2021/04/01 09:20:19;;;;;;;68.10;35.30;;;18.20;89.50;;;;;;5016813;28;20614;-82
2021/04/01 09:22:49;;;;;;;65.63;36.10;;;18.20;87.00;;;;;;5037480;28;20223;-81
2021/04/01 09:25:17;;;;;;;74.00;37.40;;;17.90;87.90;;;;;;5052668;28;20203;-82
2021/04/01 09:27:45;;;;;;;65.50;33.47;;;17.90;87.10;;;;;;5019040;28;20324;-82
2021/04/01 09:30:12;;;;;;;54.87;32.07;;;18.60;86.80;;;;;;5009501;28;20986;-81
2021/04/01 09:32:39;;;;;;;56.43;31.23;;;18.80;81.80;;;;;;5025131;28;20244;-81
2021/04/01 09:35:09;;;;;;;68.13;34.50;;;19.40;80.40;;;;;;5010895;28;20197;-82
2021/04/01 09:37:47;;;;;;;67.50;34.40;;;19.60;74.80;;;;;;5014303;28;20196;-82
2021/04/01 09:40:14;;;;;;;62.20;32.63;;;19.90;73.30;;;;;;5013819;28;20233;-81
2021/04/01 09:42:42;;;;;;;59.93;32.80;;;19.10;73.40;;;;;;5010037;28;20229;-80
2021/04/01 09:45:11;;;;;;;53.37;31.30;;;19.40;74.80;;;;;;5007487;28;20194;-81
2021/04/01 09:47:51;;;;;;;59.73;33.13;;;19.20;73.40;;;;;;5004105;28;20202;-80
2021/04/01 09:50:19;;;;;;;61.10;33.33;;;19.40;73.40;;;;;;5003570;28;20208;-81
2021/04/01 09:52:56;;;;;;;55.53;31.03;;;19.50;74.10;;;;;;5004249;28;20400;-81
2021/04/01 09:55:23;;;;;;;60.77;33.00;;;19.70;70.60;;;;;;5009285;28;20201;-81
2021/04/01 09:57:52;;;;;;;58.80;32.57;;;19.70;68.80;;;;;;5010439;28;20409;-81
2021/04/01 10:03:36;;;;;;;62.70;34.57;;;19.70;70.30;;;;;;5004819;28;20217;-81
2021/04/01 10:06:03;;;;;;;61.10;33.53;;;20.00;65.80;;;;;;5007179;28;20532;-82
2021/04/01 10:08:33;;;;;;;64.10;35.87;;;19.90;65.80;;;;;;5009315;28;20194;-81
2021/04/01 10:11:21;;;;;;;58.20;32.57;;;19.90;66.30;;;;;;5011137;28;20205;-81
2021/04/01 10:13:47;;;;;;;62.13;32.17;;;19.90;64.40;;;;;;5011591;28;20220;-80
2021/04/01 10:16:22;;;;;;;67.43;34.80;;;19.80;60.70;;;;;;5012208;28;20205;-79
2021/04/01 10:18:49;;;;;;;62.13;34.57;;;19.70;62.00;;;;;;4996777;28;20201;-81
2021/04/01 10:21:15;;;;;;;59.80;33.67;;;19.40;66.20;;;;;;5009977;28;20622;-80
2021/04/01 10:24:06;;;;;;;62.73;35.10;;;19.60;65.00;;;;;;5026252;28;20237;-81
2021/04/01 10:26:41;;;;;;;61.30;32.77;;;19.90;63.20;;;;;;5016203;28;20691;-81
2021/04/01 10:31:48;;;;;;;56.90;30.73;;;19.30;62.20;;;;;;5046171;28;20200;-81
2021/04/01 10:34:23;;;;;;;60.20;32.27;;;19.50;59.50;;;;;;5030993;28;20298;-80
2021/04/01 10:36:57;;;;;;;53.03;30.33;;;19.30;61.30;;;;;;5048791;28;20204;-81
2021/04/01 10:39:31;;;;;;;62.27;32.20;;;19.60;60.90;;;;;;5030857;28;20677;-80
2021/04/01 10:41:58;;;;;;;55.13;30.87;;;19.00;65.50;;;;;;5037868;28;20846;-80
2021/04/01 10:44:24;;;;;;;52.73;29.27;;;18.80;66.60;;;;;;5034639;28;20230;-80
2021/04/01 10:46:57;;;;;;;46.17;25.60;;;18.70;66.40;;;;;;5033304;28;20210;-81
2021/04/01 10:49:29;;;;;;;45.70;24.93;;;18.40;67.70;;;;;;5049821;28;20204;-81
2021/04/01 10:52:02;;;;;;;45.53;24.73;;;18.50;67.20;;;;;;5028320;28;20211;-80
2021/04/01 10:54:39;;;;;;;45.20;23.03;;;18.70;68.20;;;;;;5050878;28;20224;-81
2021/04/01 10:57:13;;;;;;;38.10;21.00;;;18.90;67.70;;;;;;5030942;28;20299;-81
2021/04/01 10:59:51;;;;;;;35.90;19.07;;;18.80;68.10;;;;;;5017021;28;20204;-81
2021/04/01 11:02:19;;;;;;;33.43;16.50;;;18.50;67.80;;;;;;5053556;28;20216;-80
2021/04/01 11:04:49;;;;;;;25.83;13.60;;;18.50;1.00;;;;;;5036177;28;20195;-82
2021/04/01 11:07:15;;;;;;;23.07;12.83;;;18.80;67.90;;;;;;5033304;28;20191;-79
2021/04/01 11:09:50;;;;;;;22.83;9.90;;;18.70;66.90;;;;;;5041976;28;20204;-80
2021/04/01 11:12:19;;;;;;;17.30;8.67;;;18.70;63.70;;;;;;5038465;28;20810;-81
2021/04/01 11:15:02;;;;;;;14.53;7.57;;;18.50;61.70;;;;;;5040246;28;20638;-80
2021/04/01 11:17:31;;;;;;;17.90;7.10;;;18.50;58.50;;;;;;5043122;28;20264;-80
2021/04/01 11:20:00;;;;;;;12.00;6.40;;;18.30;59.10;;;;;;5041087;28;20248;-80
2021/04/01 11:22:27;;;;;;;14.03;6.20;;;18.30;60.20;;;;;;5034672;28;20236;-80
2021/04/01 11:24:54;;;;;;;13.73;6.43;;;18.10;60.90;;;;;;5034201;28;20290;-81
2021/04/01 11:27:21;;;;;;;14.07;6.47;;;18.20;60.10;;;;;;5022897;28;20835;-80
2021/04/01 11:29:56;;;;;;;11.90;5.70;;;18.70;58.80;;;;;;5035659;28;20204;-80
2021/04/01 11:32:29;;;;;;;8.17;4.53;;;18.80;58.00;;;;;;5033263;28;20310;-80
2021/04/01 11:35:03;;;;;;;13.10;5.20;;;18.30;58.70;;;;;;5052631;28;20731;-80
2021/04/01 11:37:33;;;;;;;10.23;4.87;;;18.30;60.00;;;;;;5052621;28;20587;-80
2021/04/01 11:40:04;;;;;;;9.07;4.37;;;18.50;58.50;;;;;;5040263;28;20207;-79
2021/04/01 11:42:31;;;;;;;10.23;4.23;;;18.80;58.00;;;;;;5048327;28;20219;-80
2021/04/01 11:45:06;;;;;;;7.03;3.83;;;19.20;56.70;;;;;;5039738;28;20196;-80
2021/04/01 11:47:39;;;;;;;8.07;3.37;;;19.40;55.40;;;;;;5057061;28;20200;-80
2021/04/01 11:50:07;;;;;;;9.40;3.80;;;19.60;54.60;;;;;;5044234;28;20678;-80
2021/04/01 11:52:33;;;;;;;7.60;3.80;;;19.40;54.90;;;;;;5039009;28;20205;-80
2021/04/01 11:55:11;;;;;;;10.00;3.70;;;19.50;53.20;;;;;;5039549;28;20258;-80
2021/04/01 11:57:43;;;;;;;7.70;3.37;;;19.20;55.70;;;;;;5054958;28;20897;-81
2021/04/01 12:00:34;;;;;;;10.43;3.30;;;19.50;55.90;;;;;;5051355;28;20203;-81
2021/04/01 12:03:25;;;;;;;8.30;3.77;;;19.60;55.80;;;;;;5052064;28;20228;-82
2021/04/01 12:05:53;;;;;;;8.60;3.20;;;19.20;56.10;;;;;;5039930;28;20302;-81
2021/04/01 12:08:20;;;;;;;8.20;3.17;;;18.70;58.50;;;;;;5035090;28;20204;-81
2021/04/01 12:10:55;;;;;;;7.80;2.70;;;19.50;56.10;;;;;;5051183;28;20293;-81
2021/04/01 12:13:22;;;;;;;7.73;3.20;;;20.20;53.40;;;;;;5036727;28;20623;-82
2021/04/01 12:15:50;;;;;;;5.90;3.20;;;19.80;52.90;;;;;;5034455;28;20209;-82
2021/04/01 12:18:17;;;;;;;7.37;2.90;;;19.40;55.60;;;;;;5040072;28;20201;-82
2021/04/01 12:20:44;;;;;;;8.37;3.07;;;19.90;54.50;;;;;;5036911;28;20201;-82
2021/04/01 12:23:12;;;;;;;6.80;2.43;;;19.90;53.90;;;;;;5027040;28;20672;-82
2021/04/01 12:25:39;;;;;;;7.23;2.63;;;20.10;54.90;;;;;;5049782;28;20204;-82
2021/04/01 12:28:06;;;;;;;10.57;3.20;;;19.20;56.30;;;;;;5013986;28;20329;-82
2021/04/01 12:30:38;;;;;;;7.80;2.53;;;19.60;57.80;;;;;;5004743;28;20209;-82
2021/04/01 12:33:20;;;;;;;6.07;2.77;;;20.60;54.10;;;;;;5012635;28;20271;-81
2021/04/01 12:36:04;;;;;;;6.13;2.53;;;20.50;53.00;;;;;;5014527;28;20228;-81
2021/04/01 12:38:39;;;;;;;4.63;2.63;;;20.60;51.20;;;;;;5031193;28;20674;-81
2021/04/01 12:41:23;;;;;;;4.83;2.00;;;21.00;50.50;;;;;;5003706;28;20239;-82
2021/04/01 12:43:49;;;;;;;3.73;1.90;;;20.50;53.10;;;;;;5025886;28;20209;-82
2021/04/01 12:46:15;;;;;;;6.80;2.30;;;20.80;53.30;;;;;;5012693;28;20201;-84
2021/04/01 12:48:44;;;;;;;4.83;1.77;;;20.70;50.70;;;;;;5009078;28;20600;-82
2021/04/01 12:51:13;;;;;;;4.17;2.00;;;20.30;52.80;;;;;;5001583;28;20234;-80
2021/04/01 12:53:40;;;;;;;4.50;2.20;;;20.00;54.60;;;;;;5009457;28;20231;-81
2021/04/01 12:56:22;;;;;;;4.10;2.03;;;20.00;53.50;;;;;;4994856;28;20210;-81
2021/04/01 12:59:00;;;;;;;4.23;1.90;;;19.70;66.10;;;;;;4997474;28;20202;-81
2021/04/01 13:04:06;;;;;;;4.93;1.90;;;19.70;56.00;;;;;;5003993;28;20218;-80
2021/04/01 13:11:43;;;;;;;9.93;2.77;;;20.00;65.70;;;;;;5012482;28;20267;-80
2021/04/01 13:14:10;;;;;;;6.67;2.10;;;20.00;54.60;;;;;;4999386;28;20215;-81
2021/04/01 13:16:37;;;;;;;4.23;1.73;;;19.80;56.10;;;;;;4976162;28;20220;-80
2021/04/01 13:19:06;;;;;;;4.07;1.73;;;20.00;56.20;;;;;;5013823;28;20197;-81
2021/04/01 13:26:57;;;;;;;6.03;2.27;;;20.10;51.70;;;;;;5032457;28;20201;-81
2021/04/01 13:29:26;;;;;;;7.03;1.80;;;19.70;53.50;;;;;;5036861;28;20206;-81
2021/04/01 13:31:58;;;;;;;2.57;1.40;;;19.60;53.70;;;;;;5023725;28;20261;-80
2021/04/01 13:37:36;;;;;;;4.40;1.67;;;20.10;52.70;;;;;;5008625;28;20202;-80
2021/04/01 13:40:16;;;;;;;5.07;1.43;;;19.70;54.40;;;;;;5061599;28;20284;-83
2021/04/01 13:42:45;;;;;;;5.57;1.90;;;19.40;54.80;;;;;;5041650;28;20226;-81
2021/04/01 13:45:24;;;;;;;4.03;1.63;;;19.00;57.30;;;;;;5039312;28;20265;-81
2021/04/01 13:48:02;;;;;;;2.83;1.47;;;19.00;99.90;;;;;;5023101;28;20247;-80
2021/04/01 13:50:31;;;;;;;5.60;2.10;;;18.90;1.00;;;;;;5036065;28;20195;-81
2021/04/01 13:56:14;;;;;;;4.83;1.60;;;19.40;55.90;;;;;;5045816;28;20264;-84
2021/04/01 14:10:18;;;;;;;4.40;1.93;;;18.50;18.90;;;;;;4981736;28;20258;-86
2021/04/01 14:12:50;;;;;;;4.27;1.87;;;18.20;1.00;;;;;;5024524;28;20255;-86
2021/04/01 14:15:17;;;;;;;3.27;1.77;;;18.20;99.90;;;;;;5026617;28;20194;-86
2021/04/01 14:17:44;;;;;;;4.37;2.40;;;18.40;1.00;;;;;;5022060;28;20297;-87
2021/04/01 14:20:14;;;;;;;6.73;1.93;;;18.10;99.90;;;;;;5055300;28;20193;-85
2021/04/01 14:22:45;;;;;;;4.97;1.73;;;17.70;99.90;;;;;;5053188;28;20224;-83
2021/04/01 14:25:22;;;;;;;4.17;1.33;;;18.00;1.00;;;;;;5037718;28;20220;-83
2021/04/01 14:28:01;;;;;;;6.73;1.50;;;18.00;1.00;;;;;;5019311;28;20278;-82
2021/04/01 14:30:28;;;;;;;4.77;1.70;;;17.90;99.90;;;;;;5046521;28;20208;-84
2021/04/01 14:32:56;;;;;;;5.80;1.40;;;18.40;1.00;;;;;;5022334;28;20204;-84
2021/04/01 14:35:24;;;;;;;5.80;2.10;;;18.20;54.70;;;;;;5034368;28;20251;-84
2021/04/01 14:37:54;;;;;;;4.13;1.63;;;17.90;57.50;;;;;;5056462;28;20277;-81
2021/04/01 14:40:24;;;;;;;2.83;1.60;;;18.50;57.90;;;;;;5036102;28;20233;-82
2021/04/01 14:42:51;;;;;;;8.43;1.97;;;18.30;57.90;;;;;;5031752;28;20217;-84
2021/04/01 14:45:18;;;;;;;4.33;1.90;;;18.10;57.20;;;;;;5017863;28;20233;-81
2021/04/01 14:47:45;;;;;;;4.93;2.30;;;18.10;58.90;;;;;;5033424;28;20648;-81
2021/04/01 14:50:12;;;;;;;3.63;1.70;;;18.20;94.70;;;;;;5034396;28;20195;-82
2021/04/01 14:52:40;;;;;;;10.50;2.07;;;17.30;99.90;;;;;;5032497;28;20305;-82
2021/04/01 14:55:09;;;;;;;6.63;1.40;;;17.20;1.00;;;;;;5016607;28;20199;-82
2021/04/01 14:57:42;;;;;;;3.67;1.40;;;17.30;54.80;;;;;;5054385;28;20207;-83
2021/04/01 15:00:15;;;;;;;3.97;1.33;;;16.80;54.80;;;;;;5038939;28;20203;-83